sensor_id;sensor_type;location;lat;lon;timestamp;temperature;humidity
11188;DHT22;5650;52.700;7.306;2023-03-30T00:01:26;10.90;99.90
11188;DHT22;5650;52.700;7.306;2023-03-30T00:03:59;10.90;99.90
11188;DHT22;5650;52.700;7.306;2023-03-30T00:06:27;10.90;99.90
11188;DHT22;5650;52.700;7.306;2023-03-30T00:08:54;10.90;99.90
11188;DHT22;5650;52.700;7.306;2023-03-30T00:11:23;11.00;99.90
11188;DHT22;5650;52.700;7.306;2023-03-30T00:14:05;11.00;99.90
11188;DHT22;5650;52.700;7.306;2023-03-30T00:16:37;11.00;99.90
11188;DHT22;5650;52.700;7.306;2023-03-30T00:19:04;11.00;99.90
11188;DHT22;5650;52.700;7.306;2023-03-30T00:21:31;11.00;99.90
11188;DHT22;5650;52.700;7.306;2023-03-30T00:23:58;11.00;99.90
11188;DHT22;5650;52.700;7.306;2023-03-30T00:26:30;11.00;99.90
11188;DHT22;5650;52.700;7.306;2023-03-30T00:28:57;11.00;99.90
11188;DHT22;5650;52.700;7.306;2023-03-30T00:31:25;11.00;99.90
11188;DHT22;5650;52.700;7.306;2023-03-30T00:33:56;11.00;99.90
11188;DHT22;5650;52.700;7.306;2023-03-30T00:36:23;10.90;99.90
11188;DHT22;5650;52.700;7.306;2023-03-30T00:38:50;10.90;99.90
11188;DHT22;5650;52.700;7.306;2023-03-30T00:41:18;10.90;99.90
11188;DHT22;5650;52.700;7.306;2023-03-30T00:44:02;10.90;99.90
11188;DHT22;5650;52.700;7.306;2023-03-30T00:46:33;10.90;99.90
11188;DHT22;5650;52.700;7.306;2023-03-30T00:49:03;10.90;99.90
11188;DHT22;5650;52.700;7.306;2023-03-30T00:51:41;10.90;99.90
11188;DHT22;5650;52.700;7.306;2023-03-30T00:54:11;10.90;99.90
11188;DHT22;5650;52.700;7.306;2023-03-30T00:56:38;10.80;99.90
11188;DHT22;5650;52.700;7.306;2023-03-30T00:59:09;10.80;99.90
11188;DHT22;5650;52.700;7.306;2023-03-30T01:01:37;10.80;99.90
11188;DHT22;5650;52.700;7.306;2023-03-30T01:04:08;10.80;99.90
11188;DHT22;5650;52.700;7.306;2023-03-30T01:06:36;10.90;99.90
11188;DHT22;5650;52.700;7.306;2023-03-30T01:09:05;10.90;99.90
11188;DHT22;5650;52.700;7.306;2023-03-30T01:11:35;10.90;99.90
11188;DHT22;5650;52.700;7.306;2023-03-30T01:14:07;10.90;99.90
11188;DHT22;5650;52.700;7.306;2023-03-30T01:16:41;10.90;99.90
11188;DHT22;5650;52.700;7.306;2023-03-30T01:19:31;10.90;99.90
11188;DHT22;5650;52.700;7.306;2023-03-30T01:22:15;11.00;99.90
11188;DHT22;5650;52.700;7.306;2023-03-30T01:25:11;11.00;99.90
11188;DHT22;5650;52.700;7.306;2023-03-30T01:28:03;11.00;99.90
11188;DHT22;5650;52.700;7.306;2023-03-30T01:31:03;11.10;99.90
11188;DHT22;5650;52.700;7.306;2023-03-30T01:33:56;11.10;99.90
11188;DHT22;5650;52.700;7.306;2023-03-30T01:37:06;11.10;99.90
11188;DHT22;5650;52.700;7.306;2023-03-30T01:39:42;11.10;99.90
11188;DHT22;5650;52.700;7.306;2023-03-30T01:42:18;11.10;99.90
11188;DHT22;5650;52.700;7.306;2023-03-30T01:44:58;11.10;99.90
11188;DHT22;5650;52.700;7.306;2023-03-30T01:47:37;11.20;99.90
11188;DHT22;5650;52.700;7.306;2023-03-30T01:50:11;11.20;99.90
11188;DHT22;5650;52.700;7.306;2023-03-30T01:52:45;11.20;99.90
11188;DHT22;5650;52.700;7.306;2023-03-30T01:55:24;11.20;99.90
11188;DHT22;5650;52.700;7.306;2023-03-30T01:57:55;11.20;99.90
11188;DHT22;5650;52.700;7.306;2023-03-30T02:00:32;11.20;99.90
11188;DHT22;5650;52.700;7.306;2023-03-30T02:03:08;11.20;99.90
11188;DHT22;5650;52.700;7.306;2023-03-30T02:05:43;11.20;99.90
11188;DHT22;5650;52.700;7.306;2023-03-30T02:08:16;11.30;99.90
11188;DHT22;5650;52.700;7.306;2023-03-30T02:10:46;11.30;99.90
11188;DHT22;5650;52.700;7.306;2023-03-30T02:13:14;11.40;99.90
11188;DHT22;5650;52.700;7.306;2023-03-30T02:15:52;11.40;99.90
11188;DHT22;5650;52.700;7.306;2023-03-30T02:18:36;11.50;99.90
11188;DHT22;5650;52.700;7.306;2023-03-30T02:21:04;11.50;99.90
11188;DHT22;5650;52.700;7.306;2023-03-30T02:23:37;11.60;99.90
11188;DHT22;5650;52.700;7.306;2023-03-30T02:26:10;11.60;99.90
11188;DHT22;5650;52.700;7.306;2023-03-30T02:28:40;11.70;99.90
11188;DHT22;5650;52.700;7.306;2023-03-30T02:31:11;11.70;99.90
11188;DHT22;5650;52.700;7.306;2023-03-30T02:33:46;11.70;99.90
11188;DHT22;5650;52.700;7.306;2023-03-30T02:36:42;11.70;99.90
11188;DHT22;5650;52.700;7.306;2023-03-30T02:39:26;11.80;99.90
11188;DHT22;5650;52.700;7.306;2023-03-30T02:42:27;11.80;99.90
11188;DHT22;5650;52.700;7.306;2023-03-30T02:45:07;11.80;99.90
11188;DHT22;5650;52.700;7.306;2023-03-30T02:47:52;11.80;99.90
11188;DHT22;5650;52.700;7.306;2023-03-30T02:50:42;11.80;99.90
11188;DHT22;5650;52.700;7.306;2023-03-30T02:53:17;11.90;99.90
11188;DHT22;5650;52.700;7.306;2023-03-30T02:56:04;11.90;99.90
11188;DHT22;5650;52.700;7.306;2023-03-30T02:58:42;11.90;99.90
11188;DHT22;5650;52.700;7.306;2023-03-30T03:01:15;11.80;99.90
11188;DHT22;5650;52.700;7.306;2023-03-30T03:03:45;11.90;99.90
11188;DHT22;5650;52.700;7.306;2023-03-30T03:06:17;11.90;99.90
11188;DHT22;5650;52.700;7.306;2023-03-30T03:08:45;11.90;99.90
11188;DHT22;5650;52.700;7.306;2023-03-30T03:11:14;11.90;99.90
11188;DHT22;5650;52.700;7.306;2023-03-30T03:13:45;11.90;99.90
11188;DHT22;5650;52.700;7.306;2023-03-30T03:16:18;11.90;99.90
11188;DHT22;5650;52.700;7.306;2023-03-30T03:18:45;11.90;99.90
11188;DHT22;5650;52.700;7.306;2023-03-30T03:21:14;12.00;99.90
11188;DHT22;5650;52.700;7.306;2023-03-30T03:23:41;12.00;99.90
11188;DHT22;5650;52.700;7.306;2023-03-30T03:26:09;12.00;99.90
11188;DHT22;5650;52.700;7.306;2023-03-30T03:28:45;12.00;99.90
11188;DHT22;5650;52.700;7.306;2023-03-30T03:31:12;12.00;99.90
11188;DHT22;5650;52.700;7.306;2023-03-30T03:33:46;12.00;99.90
11188;DHT22;5650;52.700;7.306;2023-03-30T03:36:13;12.00;99.90
11188;DHT22;5650;52.700;7.306;2023-03-30T03:38:46;12.00;99.90
11188;DHT22;5650;52.700;7.306;2023-03-30T03:41:22;12.00;99.90
11188;DHT22;5650;52.700;7.306;2023-03-30T03:43:57;12.00;99.90
11188;DHT22;5650;52.700;7.306;2023-03-30T03:46:24;12.10;99.90
11188;DHT22;5650;52.700;7.306;2023-03-30T03:48:51;12.10;99.90
11188;DHT22;5650;52.700;7.306;2023-03-30T03:51:21;12.00;99.90
11188;DHT22;5650;52.700;7.306;2023-03-30T03:53:48;12.00;99.90
11188;DHT22;5650;52.700;7.306;2023-03-30T03:56:16;12.10;99.90
11188;DHT22;5650;52.700;7.306;2023-03-30T03:58:57;12.10;99.90
11188;DHT22;5650;52.700;7.306;2023-03-30T04:01:27;12.00;99.90
11188;DHT22;5650;52.700;7.306;2023-03-30T04:04:06;12.00;99.90
11188;DHT22;5650;52.700;7.306;2023-03-30T04:06:33;12.00;99.90
11188;DHT22;5650;52.700;7.306;2023-03-30T04:09:03;12.00;99.90
11188;DHT22;5650;52.700;7.306;2023-03-30T04:11:34;12.00;99.90
11188;DHT22;5650;52.700;7.306;2023-03-30T04:14:03;12.00;99.90
11188;DHT22;5650;52.700;7.306;2023-03-30T04:16:30;12.00;99.90
11188;DHT22;5650;52.700;7.306;2023-03-30T04:19:04;12.10;99.90
11188;DHT22;5650;52.700;7.306;2023-03-30T04:21:33;12.10;99.90
11188;DHT22;5650;52.700;7.306;2023-03-30T04:24:01;12.10;99.90
11188;DHT22;5650;52.700;7.306;2023-03-30T04:26:28;12.10;99.90
11188;DHT22;5650;52.700;7.306;2023-03-30T04:28:58;12.10;99.90
11188;DHT22;5650;52.700;7.306;2023-03-30T04:31:26;12.10;99.90
11188;DHT22;5650;52.700;7.306;2023-03-30T04:34:01;12.10;99.90
11188;DHT22;5650;52.700;7.306;2023-03-30T04:36:32;12.10;99.90
11188;DHT22;5650;52.700;7.306;2023-03-30T04:39:00;12.20;99.90
11188;DHT22;5650;52.700;7.306;2023-03-30T04:41:31;12.20;99.90
11188;DHT22;5650;52.700;7.306;2023-03-30T04:44:00;12.20;99.90
11188;DHT22;5650;52.700;7.306;2023-03-30T04:46:29;12.20;99.90
11188;DHT22;5650;52.700;7.306;2023-03-30T04:49:02;12.30;99.90
11188;DHT22;5650;52.700;7.306;2023-03-30T04:51:33;12.30;99.90
11188;DHT22;5650;52.700;7.306;2023-03-30T04:54:02;12.30;99.90
11188;DHT22;5650;52.700;7.306;2023-03-30T04:56:32;12.30;99.90
11188;DHT22;5650;52.700;7.306;2023-03-30T04:59:05;12.30;99.90
11188;DHT22;5650;52.700;7.306;2023-03-30T05:01:33;12.30;99.90
11188;DHT22;5650;52.700;7.306;2023-03-30T05:04:03;12.30;99.90
11188;DHT22;5650;52.700;7.306;2023-03-30T05:06:30;12.30;99.90
11188;DHT22;5650;52.700;7.306;2023-03-30T05:08:57;12.30;99.90
11188;DHT22;5650;52.700;7.306;2023-03-30T05:11:28;12.30;99.90
11188;DHT22;5650;52.700;7.306;2023-03-30T05:13:58;12.30;99.90
11188;DHT22;5650;52.700;7.306;2023-03-30T05:16:32;12.40;99.90
11188;DHT22;5650;52.700;7.306;2023-03-30T05:19:04;12.40;99.90
11188;DHT22;5650;52.700;7.306;2023-03-30T05:21:31;12.40;99.90
11188;DHT22;5650;52.700;7.306;2023-03-30T05:24:03;12.40;99.90
11188;DHT22;5650;52.700;7.306;2023-03-30T05:26:31;12.50;99.90
11188;DHT22;5650;52.700;7.306;2023-03-30T05:28:59;12.50;99.90
11188;DHT22;5650;52.700;7.306;2023-03-30T05:31:26;12.50;99.90
11188;DHT22;5650;52.700;7.306;2023-03-30T05:34:04;12.50;99.90
11188;DHT22;5650;52.700;7.306;2023-03-30T05:36:31;12.50;99.90
11188;DHT22;5650;52.700;7.306;2023-03-30T05:39:02;12.50;99.90
11188;DHT22;5650;52.700;7.306;2023-03-30T05:41:34;12.50;99.90
11188;DHT22;5650;52.700;7.306;2023-03-30T05:44:04;12.50;99.90
11188;DHT22;5650;52.700;7.306;2023-03-30T05:46:31;12.50;99.90
11188;DHT22;5650;52.700;7.306;2023-03-30T05:49:01;12.60;99.90
11188;DHT22;5650;52.700;7.306;2023-03-30T05:51:30;12.60;99.90
11188;DHT22;5650;52.700;7.306;2023-03-30T05:54:01;12.70;99.90
11188;DHT22;5650;52.700;7.306;2023-03-30T05:56:28;12.70;99.90
11188;DHT22;5650;52.700;7.306;2023-03-30T05:58:55;13.00;99.90
11188;DHT22;5650;52.700;7.306;2023-03-30T06:01:22;13.20;99.90
11188;DHT22;5650;52.700;7.306;2023-03-30T06:03:50;13.30;99.90
11188;DHT22;5650;52.700;7.306;2023-03-30T06:06:24;13.80;99.90
11188;DHT22;5650;52.700;7.306;2023-03-30T06:09:05;14.10;99.90
11188;DHT22;5650;52.700;7.306;2023-03-30T06:11:32;14.10;99.90
11188;DHT22;5650;52.700;7.306;2023-03-30T06:14:03;14.00;99.90
11188;DHT22;5650;52.700;7.306;2023-03-30T06:16:36;13.90;99.90
11188;DHT22;5650;52.700;7.306;2023-03-30T06:19:03;13.70;99.90
11188;DHT22;5650;52.700;7.306;2023-03-30T06:21:31;13.60;99.90
11188;DHT22;5650;52.700;7.306;2023-03-30T06:23:58;13.50;99.90
11188;DHT22;5650;52.700;7.306;2023-03-30T06:26:33;13.40;99.90
11188;DHT22;5650;52.700;7.306;2023-03-30T06:29:03;13.30;99.90
11188;DHT22;5650;52.700;7.306;2023-03-30T06:31:38;13.20;99.90
11188;DHT22;5650;52.700;7.306;2023-03-30T06:34:08;13.20;99.90
11188;DHT22;5650;52.700;7.306;2023-03-30T06:36:36;13.20;99.90
11188;DHT22;5650;52.700;7.306;2023-03-30T06:39:10;13.20;99.90
11188;DHT22;5650;52.700;7.306;2023-03-30T06:41:48;13.20;99.90
11188;DHT22;5650;52.700;7.306;2023-03-30T06:44:15;13.20;99.90
11188;DHT22;5650;52.700;7.306;2023-03-30T06:46:42;13.30;99.90
11188;DHT22;5650;52.700;7.306;2023-03-30T06:49:10;13.30;99.90
11188;DHT22;5650;52.700;7.306;2023-03-30T06:51:37;13.30;99.90
11188;DHT22;5650;52.700;7.306;2023-03-30T06:54:05;13.40;99.90
11188;DHT22;5650;52.700;7.306;2023-03-30T06:56:32;13.40;99.90
11188;DHT22;5650;52.700;7.306;2023-03-30T06:59:04;13.50;99.90
11188;DHT22;5650;52.700;7.306;2023-03-30T07:01:31;13.50;99.90
11188;DHT22;5650;52.700;7.306;2023-03-30T07:03:58;13.50;99.90
11188;DHT22;5650;52.700;7.306;2023-03-30T07:06:33;13.50;99.90
11188;DHT22;5650;52.700;7.306;2023-03-30T07:09:00;13.50;99.90
11188;DHT22;5650;52.700;7.306;2023-03-30T07:11:30;13.50;99.90
11188;DHT22;5650;52.700;7.306;2023-03-30T07:13:57;13.50;99.90
11188;DHT22;5650;52.700;7.306;2023-03-30T07:16:30;13.50;99.90
11188;DHT22;5650;52.700;7.306;2023-03-30T07:19:03;13.50;99.90
11188;DHT22;5650;52.700;7.306;2023-03-30T07:21:31;13.50;99.90
11188;DHT22;5650;52.700;7.306;2023-03-30T07:24:01;13.50;99.90
11188;DHT22;5650;52.700;7.306;2023-03-30T07:26:31;13.50;99.90
11188;DHT22;5650;52.700;7.306;2023-03-30T07:28:59;13.50;99.90
11188;DHT22;5650;52.700;7.306;2023-03-30T07:31:26;13.50;99.90
11188;DHT22;5650;52.700;7.306;2023-03-30T07:34:01;13.50;99.90
11188;DHT22;5650;52.700;7.306;2023-03-30T07:36:35;13.60;99.90
11188;DHT22;5650;52.700;7.306;2023-03-30T07:39:02;13.60;99.90
11188;DHT22;5650;52.700;7.306;2023-03-30T07:41:31;13.70;99.90
11188;DHT22;5650;52.700;7.306;2023-03-30T07:43:58;13.90;99.90
11188;DHT22;5650;52.700;7.306;2023-03-30T07:46:26;14.10;99.90
11188;DHT22;5650;52.700;7.306;2023-03-30T07:48:53;14.50;99.90
11188;DHT22;5650;52.700;7.306;2023-03-30T07:51:27;14.80;99.90
11188;DHT22;5650;52.700;7.306;2023-03-30T07:53:54;15.00;99.90
11188;DHT22;5650;52.700;7.306;2023-03-30T07:56:21;15.30;99.90
11188;DHT22;5650;52.700;7.306;2023-03-30T07:58:49;15.30;99.90
11188;DHT22;5650;52.700;7.306;2023-03-30T08:01:16;15.50;99.90
11188;DHT22;5650;52.700;7.306;2023-03-30T08:03:44;15.70;99.90
11188;DHT22;5650;52.700;7.306;2023-03-30T08:06:15;15.80;99.90
11188;DHT22;5650;52.700;7.306;2023-03-30T08:08:44;15.80;99.90
11188;DHT22;5650;52.700;7.306;2023-03-30T08:11:18;15.60;99.90
11188;DHT22;5650;52.700;7.306;2023-03-30T08:14:01;15.30;99.90
11188;DHT22;5650;52.700;7.306;2023-03-30T08:16:28;15.20;99.90
11188;DHT22;5650;52.700;7.306;2023-03-30T08:19:01;15.10;99.90
11188;DHT22;5650;52.700;7.306;2023-03-30T08:21:29;15.20;99.90
11188;DHT22;5650;52.700;7.306;2023-03-30T08:23:57;15.40;99.90
11188;DHT22;5650;52.700;7.306;2023-03-30T08:26:27;15.70;99.90
11188;DHT22;5650;52.700;7.306;2023-03-30T08:28:55;15.60;99.90
11188;DHT22;5650;52.700;7.306;2023-03-30T08:31:30;15.60;99.90
11188;DHT22;5650;52.700;7.306;2023-03-30T08:33:58;15.50;99.90
11188;DHT22;5650;52.700;7.306;2023-03-30T08:36:25;15.30;99.90
11188;DHT22;5650;52.700;7.306;2023-03-30T08:39:02;15.10;99.90
11188;DHT22;5650;52.700;7.306;2023-03-30T08:42:01;15.00;99.90
11188;DHT22;5650;52.700;7.306;2023-03-30T08:44:35;14.80;99.90
11188;DHT22;5650;52.700;7.306;2023-03-30T08:47:12;14.70;99.90
11188;DHT22;5650;52.700;7.306;2023-03-30T08:49:54;14.80;99.90
11188;DHT22;5650;52.700;7.306;2023-03-30T08:52:24;15.00;99.90
11188;DHT22;5650;52.700;7.306;2023-03-30T08:54:56;15.30;99.90
11188;DHT22;5650;52.700;7.306;2023-03-30T08:57:45;15.60;99.90
11188;DHT22;5650;52.700;7.306;2023-03-30T09:00:20;15.80;99.90
11188;DHT22;5650;52.700;7.306;2023-03-30T09:03:02;16.00;99.90
11188;DHT22;5650;52.700;7.306;2023-03-30T09:05:53;15.80;99.90
11188;DHT22;5650;52.700;7.306;2023-03-30T09:08:22;15.60;99.90
11188;DHT22;5650;52.700;7.306;2023-03-30T09:10:59;15.40;99.90
11188;DHT22;5650;52.700;7.306;2023-03-30T09:13:30;15.20;99.90
11188;DHT22;5650;52.700;7.306;2023-03-30T09:16:02;15.10;99.90
11188;DHT22;5650;52.700;7.306;2023-03-30T09:18:34;14.90;99.90
11188;DHT22;5650;52.700;7.306;2023-03-30T09:21:09;14.80;99.90
11188;DHT22;5650;52.700;7.306;2023-03-30T09:23:43;14.60;99.90
11188;DHT22;5650;52.700;7.306;2023-03-30T09:26:19;14.50;99.90
11188;DHT22;5650;52.700;7.306;2023-03-30T09:28:56;14.40;99.90
11188;DHT22;5650;52.700;7.306;2023-03-30T09:31:34;14.30;99.90
11188;DHT22;5650;52.700;7.306;2023-03-30T09:34:18;14.30;99.90
11188;DHT22;5650;52.700;7.306;2023-03-30T09:36:55;14.30;99.90
11188;DHT22;5650;52.700;7.306;2023-03-30T09:39:27;14.20;99.90
11188;DHT22;5650;52.700;7.306;2023-03-30T09:42:17;14.30;99.90
11188;DHT22;5650;52.700;7.306;2023-03-30T09:44:50;14.30;99.90
11188;DHT22;5650;52.700;7.306;2023-03-30T09:47:29;14.30;99.90
11188;DHT22;5650;52.700;7.306;2023-03-30T09:50:04;14.30;99.90
11188;DHT22;5650;52.700;7.306;2023-03-30T09:52:33;14.30;99.90
11188;DHT22;5650;52.700;7.306;2023-03-30T09:55:25;14.40;99.90
11188;DHT22;5650;52.700;7.306;2023-03-30T09:58:11;14.50;99.90
11188;DHT22;5650;52.700;7.306;2023-03-30T10:00:38;14.50;99.90
11188;DHT22;5650;52.700;7.306;2023-03-30T10:03:21;14.50;99.90
11188;DHT22;5650;52.700;7.306;2023-03-30T10:06:05;14.50;99.90
11188;DHT22;5650;52.700;7.306;2023-03-30T10:08:36;14.40;99.90
11188;DHT22;5650;52.700;7.306;2023-03-30T10:11:31;14.40;99.90
11188;DHT22;5650;52.700;7.306;2023-03-30T10:14:04;14.70;99.90
11188;DHT22;5650;52.700;7.306;2023-03-30T10:16:32;15.00;99.90
11188;DHT22;5650;52.700;7.306;2023-03-30T10:19:02;15.10;99.90
11188;DHT22;5650;52.700;7.306;2023-03-30T10:21:36;15.00;99.90
11188;DHT22;5650;52.700;7.306;2023-03-30T10:24:09;15.00;99.90
11188;DHT22;5650;52.700;7.306;2023-03-30T10:26:49;14.90;99.90
11188;DHT22;5650;52.700;7.306;2023-03-30T10:29:21;14.70;99.90
11188;DHT22;5650;52.700;7.306;2023-03-30T10:31:54;14.80;99.90
11188;DHT22;5650;52.700;7.306;2023-03-30T10:34:37;14.90;99.90
11188;DHT22;5650;52.700;7.306;2023-03-30T10:37:08;15.00;99.90
11188;DHT22;5650;52.700;7.306;2023-03-30T10:39:40;15.00;99.90
11188;DHT22;5650;52.700;7.306;2023-03-30T10:42:14;15.10;99.90
11188;DHT22;5650;52.700;7.306;2023-03-30T10:44:46;15.10;99.90
11188;DHT22;5650;52.700;7.306;2023-03-30T10:47:46;15.10;99.90
11188;DHT22;5650;52.700;7.306;2023-03-30T10:50:21;14.90;99.90
11188;DHT22;5650;52.700;7.306;2023-03-30T10:52:59;14.80;99.90
11188;DHT22;5650;52.700;7.306;2023-03-30T10:55:36;14.70;99.90
11188;DHT22;5650;52.700;7.306;2023-03-30T10:58:18;14.60;99.90
11188;DHT22;5650;52.700;7.306;2023-03-30T11:01:00;14.40;99.90
11188;DHT22;5650;52.700;7.306;2023-03-30T11:03:36;14.40;99.90
11188;DHT22;5650;52.700;7.306;2023-03-30T11:06:09;14.40;99.90
11188;DHT22;5650;52.700;7.306;2023-03-30T11:08:44;14.30;99.90
11188;DHT22;5650;52.700;7.306;2023-03-30T11:11:18;14.30;99.90
11188;DHT22;5650;52.700;7.306;2023-03-30T11:13:50;14.30;99.90
11188;DHT22;5650;52.700;7.306;2023-03-30T11:16:25;14.30;99.90
11188;DHT22;5650;52.700;7.306;2023-03-30T11:19:09;14.50;99.90
11188;DHT22;5650;52.700;7.306;2023-03-30T11:21:48;14.70;99.90
11188;DHT22;5650;52.700;7.306;2023-03-30T11:24:27;15.00;99.90
11188;DHT22;5650;52.700;7.306;2023-03-30T11:27:02;15.30;99.90
11188;DHT22;5650;52.700;7.306;2023-03-30T11:29:37;15.60;99.90
11188;DHT22;5650;52.700;7.306;2023-03-30T11:32:25;15.80;99.90
11188;DHT22;5650;52.700;7.306;2023-03-30T11:35:02;16.10;99.90
11188;DHT22;5650;52.700;7.306;2023-03-30T11:37:33;16.20;99.90
11188;DHT22;5650;52.700;7.306;2023-03-30T11:40:23;16.30;99.90
11188;DHT22;5650;52.700;7.306;2023-03-30T11:42:59;16.20;99.90
11188;DHT22;5650;52.700;7.306;2023-03-30T11:48:51;15.90;99.90
11188;DHT22;5650;52.700;7.306;2023-03-30T11:51:46;15.90;99.90
11188;DHT22;5650;52.700;7.306;2023-03-30T11:54:34;16.00;99.90
11188;DHT22;5650;52.700;7.306;2023-03-30T11:57:13;15.90;99.90
11188;DHT22;5650;52.700;7.306;2023-03-30T11:59:46;16.00;99.90
11188;DHT22;5650;52.700;7.306;2023-03-30T12:02:23;16.10;99.90
11188;DHT22;5650;52.700;7.306;2023-03-30T12:05:02;16.30;99.90
11188;DHT22;5650;52.700;7.306;2023-03-30T12:07:47;16.60;99.90
11188;DHT22;5650;52.700;7.306;2023-03-30T12:10:19;16.80;99.90
11188;DHT22;5650;52.700;7.306;2023-03-30T12:15:49;17.00;99.90
11188;DHT22;5650;52.700;7.306;2023-03-30T12:18:28;16.90;99.90
11188;DHT22;5650;52.700;7.306;2023-03-30T12:21:14;17.10;99.90
11188;DHT22;5650;52.700;7.306;2023-03-30T12:23:46;17.00;99.90
11188;DHT22;5650;52.700;7.306;2023-03-30T12:26:24;16.90;99.90
11188;DHT22;5650;52.700;7.306;2023-03-30T12:29:08;16.70;99.90
11188;DHT22;5650;52.700;7.306;2023-03-30T12:32:05;16.60;99.90
11188;DHT22;5650;52.700;7.306;2023-03-30T12:34:34;16.50;99.90
11188;DHT22;5650;52.700;7.306;2023-03-30T12:37:05;16.30;99.90
11188;DHT22;5650;52.700;7.306;2023-03-30T12:39:40;16.20;99.90
11188;DHT22;5650;52.700;7.306;2023-03-30T12:42:15;16.00;99.90
11188;DHT22;5650;52.700;7.306;2023-03-30T12:44:58;15.80;99.90
11188;DHT22;5650;52.700;7.306;2023-03-30T12:47:42;15.80;99.90
11188;DHT22;5650;52.700;7.306;2023-03-30T12:50:30;15.70;99.90
11188;DHT22;5650;52.700;7.306;2023-03-30T12:53:25;15.70;99.90
11188;DHT22;5650;52.700;7.306;2023-03-30T12:56:02;15.60;99.90
11188;DHT22;5650;52.700;7.306;2023-03-30T12:59:02;15.50;99.90
11188;DHT22;5650;52.700;7.306;2023-03-30T13:01:44;15.60;99.90
11188;DHT22;5650;52.700;7.306;2023-03-30T13:04:19;15.60;99.90
11188;DHT22;5650;52.700;7.306;2023-03-30T13:06:51;15.60;99.90
11188;DHT22;5650;52.700;7.306;2023-03-30T13:09:32;15.50;99.90
11188;DHT22;5650;52.700;7.306;2023-03-30T13:12:31;15.30;99.90
11188;DHT22;5650;52.700;7.306;2023-03-30T13:15:04;15.10;99.90
11188;DHT22;5650;52.700;7.306;2023-03-30T13:17:56;14.80;99.90
11188;DHT22;5650;52.700;7.306;2023-03-30T13:20:28;14.60;99.90
11188;DHT22;5650;52.700;7.306;2023-03-30T13:23:04;14.60;99.90
11188;DHT22;5650;52.700;7.306;2023-03-30T13:25:44;14.50;99.90
11188;DHT22;5650;52.700;7.306;2023-03-30T13:28:45;14.50;99.90
11188;DHT22;5650;52.700;7.306;2023-03-30T13:31:39;14.60;99.90
11188;DHT22;5650;52.700;7.306;2023-03-30T13:34:16;14.80;99.90
11188;DHT22;5650;52.700;7.306;2023-03-30T13:36:53;15.00;99.90
11188;DHT22;5650;52.700;7.306;2023-03-30T13:39:28;15.10;99.90
11188;DHT22;5650;52.700;7.306;2023-03-30T13:42:24;15.30;99.90
11188;DHT22;5650;52.700;7.306;2023-03-30T13:45:00;15.50;99.90
11188;DHT22;5650;52.700;7.306;2023-03-30T13:47:41;15.70;99.90
11188;DHT22;5650;52.700;7.306;2023-03-30T13:50:15;15.80;99.90
11188;DHT22;5650;52.700;7.306;2023-03-30T13:52:47;15.90;99.90
11188;DHT22;5650;52.700;7.306;2023-03-30T13:55:18;16.00;99.90
11188;DHT22;5650;52.700;7.306;2023-03-30T13:57:50;16.00;99.90
11188;DHT22;5650;52.700;7.306;2023-03-30T14:00:28;16.10;99.90
11188;DHT22;5650;52.700;7.306;2023-03-30T14:02:58;16.20;99.90
11188;DHT22;5650;52.700;7.306;2023-03-30T14:05:26;16.20;99.90
11188;DHT22;5650;52.700;7.306;2023-03-30T14:07:57;16.10;99.90
11188;DHT22;5650;52.700;7.306;2023-03-30T14:10:25;16.20;99.90
11188;DHT22;5650;52.700;7.306;2023-03-30T14:12:55;16.20;99.90
11188;DHT22;5650;52.700;7.306;2023-03-30T14:15:25;16.20;99.90
11188;DHT22;5650;52.700;7.306;2023-03-30T14:17:54;16.20;99.90
11188;DHT22;5650;52.700;7.306;2023-03-30T14:20:37;16.30;99.90
11188;DHT22;5650;52.700;7.306;2023-03-30T14:23:15;16.50;99.90
11188;DHT22;5650;52.700;7.306;2023-03-30T14:25:44;16.50;99.90
11188;DHT22;5650;52.700;7.306;2023-03-30T14:28:14;16.30;99.90
11188;DHT22;5650;52.700;7.306;2023-03-30T14:30:49;16.20;99.90
11188;DHT22;5650;52.700;7.306;2023-03-30T14:33:17;16.00;99.90
11188;DHT22;5650;52.700;7.306;2023-03-30T14:35:46;16.00;99.90
11188;DHT22;5650;52.700;7.306;2023-03-30T14:38:18;16.10;99.90
11188;DHT22;5650;52.700;7.306;2023-03-30T14:40:46;16.00;99.90
11188;DHT22;5650;52.700;7.306;2023-03-30T14:43:17;15.90;99.90
11188;DHT22;5650;52.700;7.306;2023-03-30T14:45:46;15.90;99.90
11188;DHT22;5650;52.700;7.306;2023-03-30T14:48:20;15.80;99.90
11188;DHT22;5650;52.700;7.306;2023-03-30T14:50:48;15.80;99.90
11188;DHT22;5650;52.700;7.306;2023-03-30T14:53:20;15.80;99.90
11188;DHT22;5650;52.700;7.306;2023-03-30T14:55:49;15.80;99.90
11188;DHT22;5650;52.700;7.306;2023-03-30T14:58:23;15.90;99.90
11188;DHT22;5650;52.700;7.306;2023-03-30T15:00:55;15.80;99.90
11188;DHT22;5650;52.700;7.306;2023-03-30T15:03:25;15.80;99.90
11188;DHT22;5650;52.700;7.306;2023-03-30T15:05:54;15.70;99.90
11188;DHT22;5650;52.700;7.306;2023-03-30T15:08:24;15.60;99.90
11188;DHT22;5650;52.700;7.306;2023-03-30T15:10:53;15.50;99.90
11188;DHT22;5650;52.700;7.306;2023-03-30T15:13:25;15.50;99.90
11188;DHT22;5650;52.700;7.306;2023-03-30T15:15:55;15.50;99.90
11188;DHT22;5650;52.700;7.306;2023-03-30T15:18:25;15.50;99.90
11188;DHT22;5650;52.700;7.306;2023-03-30T15:20:54;15.40;99.90
11188;DHT22;5650;52.700;7.306;2023-03-30T15:23:22;15.30;99.90
11188;DHT22;5650;52.700;7.306;2023-03-30T15:25:59;15.30;99.90
11188;DHT22;5650;52.700;7.306;2023-03-30T15:28:32;15.30;99.90
11188;DHT22;5650;52.700;7.306;2023-03-30T15:31:00;15.20;99.90
11188;DHT22;5650;52.700;7.306;2023-03-30T15:33:33;15.30;99.90
11188;DHT22;5650;52.700;7.306;2023-03-30T15:36:04;15.20;99.90
11188;DHT22;5650;52.700;7.306;2023-03-30T15:38:33;15.30;99.90
11188;DHT22;5650;52.700;7.306;2023-03-30T15:41:01;15.30;99.90
11188;DHT22;5650;52.700;7.306;2023-03-30T15:43:30;15.50;99.90
11188;DHT22;5650;52.700;7.306;2023-03-30T15:46:05;15.50;99.90
11188;DHT22;5650;52.700;7.306;2023-03-30T15:48:35;15.60;99.90
11188;DHT22;5650;52.700;7.306;2023-03-30T15:51:08;15.50;99.90
11188;DHT22;5650;52.700;7.306;2023-03-30T15:53:40;15.40;99.90
11188;DHT22;5650;52.700;7.306;2023-03-30T15:56:12;15.40;99.90
11188;DHT22;5650;52.700;7.306;2023-03-30T16:02:15;15.20;99.90
11188;DHT22;5650;52.700;7.306;2023-03-30T16:04:42;15.10;99.90
11188;DHT22;5650;52.700;7.306;2023-03-30T16:07:15;15.10;99.90
11188;DHT22;5650;52.700;7.306;2023-03-30T16:09:42;15.10;99.90
11188;DHT22;5650;52.700;7.306;2023-03-30T16:12:11;15.00;99.90
11188;DHT22;5650;52.700;7.306;2023-03-30T16:14:39;15.00;99.90
11188;DHT22;5650;52.700;7.306;2023-03-30T16:17:10;15.00;99.90
11188;DHT22;5650;52.700;7.306;2023-03-30T16:19:39;14.90;99.90
11188;DHT22;5650;52.700;7.306;2023-03-30T16:22:10;14.90;99.90
11188;DHT22;5650;52.700;7.306;2023-03-30T16:24:38;14.90;99.90
11188;DHT22;5650;52.700;7.306;2023-03-30T16:27:08;14.80;99.90
11188;DHT22;5650;52.700;7.306;2023-03-30T16:29:36;14.80;99.90
11188;DHT22;5650;52.700;7.306;2023-03-30T16:32:03;14.80;99.90
11188;DHT22;5650;52.700;7.306;2023-03-30T16:34:31;14.80;99.90
11188;DHT22;5650;52.700;7.306;2023-03-30T16:36:59;14.70;99.90